sensor_id;sensor_type;location;lat;lon;timestamp;P1;durP1;ratioP1;P2;durP2;ratioP2
809;SDS011;387;48.772;9.186;2023-06-14T00:00:17;13.33;;;7.20;;
809;SDS011;387;48.772;9.186;2023-06-14T00:02:43;9.90;;;5.90;;
809;SDS011;387;48.772;9.186;2023-06-14T00:05:08;11.40;;;6.40;;
809;SDS011;387;48.772;9.186;2023-06-14T00:07:37;10.03;;;6.37;;
809;SDS011;387;48.772;9.186;2023-06-14T00:10:08;8.93;;;6.00;;
809;SDS011;387;48.772;9.186;2023-06-14T00:12:34;11.40;;;6.63;;
809;SDS011;387;48.772;9.186;2023-06-14T00:15:00;11.90;;;7.00;;
809;SDS011;387;48.772;9.186;2023-06-14T00:17:28;11.70;;;7.10;;
809;SDS011;387;48.772;9.186;2023-06-14T00:19:58;10.07;;;6.50;;
809;SDS011;387;48.772;9.186;2023-06-14T00:22:24;11.43;;;6.47;;
809;SDS011;387;48.772;9.186;2023-06-14T00:24:53;12.37;;;6.70;;
809;SDS011;387;48.772;9.186;2023-06-14T00:27:18;11.73;;;6.27;;
809;SDS011;387;48.772;9.186;2023-06-14T00:29:44;10.63;;;6.30;;
809;SDS011;387;48.772;9.186;2023-06-14T00:32:09;11.17;;;7.20;;
809;SDS011;387;48.772;9.186;2023-06-14T00:34:35;9.47;;;6.53;;
809;SDS011;387;48.772;9.186;2023-06-14T00:37:00;8.57;;;5.43;;
809;SDS011;387;48.772;9.186;2023-06-14T00:39:26;7.63;;;6.03;;
809;SDS011;387;48.772;9.186;2023-06-14T00:41:52;13.90;;;6.63;;
809;SDS011;387;48.772;9.186;2023-06-14T00:44:17;11.93;;;6.20;;
809;SDS011;387;48.772;9.186;2023-06-14T00:46:45;9.00;;;6.20;;
809;SDS011;387;48.772;9.186;2023-06-14T00:49:11;11.00;;;6.47;;
809;SDS011;387;48.772;9.186;2023-06-14T00:51:40;8.30;;;5.60;;
809;SDS011;387;48.772;9.186;2023-06-14T00:54:06;12.00;;;6.90;;
809;SDS011;387;48.772;9.186;2023-06-14T00:56:31;9.47;;;6.10;;
809;SDS011;387;48.772;9.186;2023-06-14T00:58:57;7.60;;;5.53;;
809;SDS011;387;48.772;9.186;2023-06-14T01:01:23;9.20;;;6.37;;
809;SDS011;387;48.772;9.186;2023-06-14T01:03:49;8.93;;;6.20;;
809;SDS011;387;48.772;9.186;2023-06-14T01:06:22;9.33;;;6.67;;
809;SDS011;387;48.772;9.186;2023-06-14T01:09:15;9.30;;;6.33;;
809;SDS011;387;48.772;9.186;2023-06-14T01:11:58;14.63;;;5.70;;
809;SDS011;387;48.772;9.186;2023-06-14T01:14:29;9.80;;;6.37;;
809;SDS011;387;48.772;9.186;2023-06-14T01:16:57;13.80;;;6.40;;
809;SDS011;387;48.772;9.186;2023-06-14T01:19:25;11.03;;;6.20;;
809;SDS011;387;48.772;9.186;2023-06-14T01:21:53;8.77;;;5.63;;
809;SDS011;387;48.772;9.186;2023-06-14T01:24:20;9.80;;;5.90;;
809;SDS011;387;48.772;9.186;2023-06-14T01:26:52;8.13;;;5.67;;
809;SDS011;387;48.772;9.186;2023-06-14T01:29:21;10.27;;;5.70;;
809;SDS011;387;48.772;9.186;2023-06-14T01:31:48;8.57;;;5.80;;
809;SDS011;387;48.772;9.186;2023-06-14T01:34:15;12.20;;;6.40;;
809;SDS011;387;48.772;9.186;2023-06-14T01:36:41;9.90;;;6.10;;
809;SDS011;387;48.772;9.186;2023-06-14T01:39:10;9.00;;;5.33;;
809;SDS011;387;48.772;9.186;2023-06-14T01:41:38;9.67;;;5.60;;
809;SDS011;387;48.772;9.186;2023-06-14T01:44:06;11.17;;;6.23;;
809;SDS011;387;48.772;9.186;2023-06-14T01:46:32;10.50;;;5.87;;
809;SDS011;387;48.772;9.186;2023-06-14T01:48:57;9.57;;;6.33;;
809;SDS011;387;48.772;9.186;2023-06-14T01:51:24;10.00;;;6.03;;
809;SDS011;387;48.772;9.186;2023-06-14T01:53:50;10.40;;;6.37;;
809;SDS011;387;48.772;9.186;2023-06-14T01:56:15;15.40;;;6.67;;
809;SDS011;387;48.772;9.186;2023-06-14T01:58:41;10.10;;;6.20;;
809;SDS011;387;48.772;9.186;2023-06-14T02:01:07;12.40;;;6.40;;
809;SDS011;387;48.772;9.186;2023-06-14T02:03:33;11.30;;;6.70;;
809;SDS011;387;48.772;9.186;2023-06-14T02:05:59;9.37;;;6.30;;
809;SDS011;387;48.772;9.186;2023-06-14T02:08:24;12.90;;;6.50;;
809;SDS011;387;48.772;9.186;2023-06-14T02:10:51;10.93;;;6.40;;
809;SDS011;387;48.772;9.186;2023-06-14T02:13:16;9.40;;;6.60;;
809;SDS011;387;48.772;9.186;2023-06-14T02:15:42;8.60;;;6.20;;
809;SDS011;387;48.772;9.186;2023-06-14T02:18:09;10.63;;;6.37;;
809;SDS011;387;48.772;9.186;2023-06-14T02:20:35;12.13;;;6.73;;
809;SDS011;387;48.772;9.186;2023-06-14T02:23:00;8.57;;;6.40;;
809;SDS011;387;48.772;9.186;2023-06-14T02:25:26;14.50;;;7.87;;
809;SDS011;387;48.772;9.186;2023-06-14T02:27:55;9.03;;;6.40;;
809;SDS011;387;48.772;9.186;2023-06-14T02:30:21;10.60;;;6.40;;
809;SDS011;387;48.772;9.186;2023-06-14T02:32:47;11.10;;;6.53;;
809;SDS011;387;48.772;9.186;2023-06-14T02:35:13;10.77;;;7.07;;
809;SDS011;387;48.772;9.186;2023-06-14T02:37:39;8.87;;;5.63;;
809;SDS011;387;48.772;9.186;2023-06-14T02:40:06;11.80;;;6.77;;
809;SDS011;387;48.772;9.186;2023-06-14T02:42:34;9.07;;;6.40;;
809;SDS011;387;48.772;9.186;2023-06-14T02:44:59;10.77;;;6.30;;
809;SDS011;387;48.772;9.186;2023-06-14T02:47:25;10.13;;;7.00;;
809;SDS011;387;48.772;9.186;2023-06-14T02:49:51;12.57;;;6.27;;
809;SDS011;387;48.772;9.186;2023-06-14T02:52:16;10.93;;;7.00;;
809;SDS011;387;48.772;9.186;2023-06-14T02:54:42;14.97;;;8.03;;
809;SDS011;387;48.772;9.186;2023-06-14T02:57:08;8.60;;;5.90;;
809;SDS011;387;48.772;9.186;2023-06-14T02:59:33;12.77;;;6.67;;
809;SDS011;387;48.772;9.186;2023-06-14T03:02:00;14.50;;;6.43;;
809;SDS011;387;48.772;9.186;2023-06-14T03:04:26;11.40;;;6.60;;
809;SDS011;387;48.772;9.186;2023-06-14T03:06:52;12.13;;;6.70;;
809;SDS011;387;48.772;9.186;2023-06-14T03:09:18;10.50;;;6.13;;
809;SDS011;387;48.772;9.186;2023-06-14T03:11:45;9.37;;;6.73;;
809;SDS011;387;48.772;9.186;2023-06-14T03:14:10;11.37;;;7.40;;
809;SDS011;387;48.772;9.186;2023-06-14T03:16:38;13.57;;;6.47;;
809;SDS011;387;48.772;9.186;2023-06-14T03:19:04;11.10;;;7.00;;
809;SDS011;387;48.772;9.186;2023-06-14T03:21:29;9.50;;;5.97;;
809;SDS011;387;48.772;9.186;2023-06-14T03:23:55;11.40;;;6.70;;
809;SDS011;387;48.772;9.186;2023-06-14T03:26:20;8.57;;;6.33;;
809;SDS011;387;48.772;9.186;2023-06-14T03:28:47;13.30;;;6.90;;
809;SDS011;387;48.772;9.186;2023-06-14T03:31:16;12.20;;;6.70;;
809;SDS011;387;48.772;9.186;2023-06-14T03:33:41;8.33;;;6.33;;
809;SDS011;387;48.772;9.186;2023-06-14T03:36:07;9.00;;;6.50;;
809;SDS011;387;48.772;9.186;2023-06-14T03:38:33;9.93;;;7.07;;
809;SDS011;387;48.772;9.186;2023-06-14T03:40:59;19.40;;;7.47;;
809;SDS011;387;48.772;9.186;2023-06-14T03:43:24;11.30;;;7.50;;
809;SDS011;387;48.772;9.186;2023-06-14T03:45:50;12.50;;;7.67;;
809;SDS011;387;48.772;9.186;2023-06-14T03:48:16;10.83;;;7.03;;
809;SDS011;387;48.772;9.186;2023-06-14T03:50:42;10.73;;;5.80;;
809;SDS011;387;48.772;9.186;2023-06-14T03:53:08;10.07;;;6.30;;
809;SDS011;387;48.772;9.186;2023-06-14T03:55:33;10.90;;;6.47;;
809;SDS011;387;48.772;9.186;2023-06-14T03:57:59;12.03;;;6.77;;
809;SDS011;387;48.772;9.186;2023-06-14T04:00:25;10.83;;;6.40;;
809;SDS011;387;48.772;9.186;2023-06-14T04:02:51;10.20;;;7.03;;
809;SDS011;387;48.772;9.186;2023-06-14T04:05:17;7.80;;;6.17;;
809;SDS011;387;48.772;9.186;2023-06-14T04:07:44;9.80;;;7.10;;
809;SDS011;387;48.772;9.186;2023-06-14T04:10:11;11.03;;;6.90;;
809;SDS011;387;48.772;9.186;2023-06-14T04:12:37;9.57;;;6.20;;
809;SDS011;387;48.772;9.186;2023-06-14T04:15:03;8.20;;;6.30;;
809;SDS011;387;48.772;9.186;2023-06-14T04:17:31;13.20;;;7.70;;
809;SDS011;387;48.772;9.186;2023-06-14T04:20:00;17.67;;;7.60;;
809;SDS011;387;48.772;9.186;2023-06-14T04:22:27;11.60;;;7.33;;
809;SDS011;387;48.772;9.186;2023-06-14T04:24:56;9.70;;;5.93;;
809;SDS011;387;48.772;9.186;2023-06-14T04:27:22;11.63;;;6.70;;
809;SDS011;387;48.772;9.186;2023-06-14T04:29:51;9.73;;;6.90;;
809;SDS011;387;48.772;9.186;2023-06-14T04:32:28;10.87;;;6.30;;
809;SDS011;387;48.772;9.186;2023-06-14T04:35:03;11.90;;;6.90;;
809;SDS011;387;48.772;9.186;2023-06-14T04:37:32;13.70;;;7.20;;
809;SDS011;387;48.772;9.186;2023-06-14T04:39:58;10.43;;;6.63;;
809;SDS011;387;48.772;9.186;2023-06-14T04:42:23;10.33;;;6.77;;
809;SDS011;387;48.772;9.186;2023-06-14T04:44:55;10.87;;;7.00;;
809;SDS011;387;48.772;9.186;2023-06-14T04:47:21;12.20;;;6.50;;
809;SDS011;387;48.772;9.186;2023-06-14T04:49:49;14.10;;;7.30;;
809;SDS011;387;48.772;9.186;2023-06-14T04:52:17;13.57;;;6.40;;
809;SDS011;387;48.772;9.186;2023-06-14T04:54:46;11.83;;;7.33;;
809;SDS011;387;48.772;9.186;2023-06-14T04:57:12;8.90;;;6.87;;
809;SDS011;387;48.772;9.186;2023-06-14T04:59:42;10.00;;;6.70;;
809;SDS011;387;48.772;9.186;2023-06-14T05:02:09;14.90;;;6.97;;
809;SDS011;387;48.772;9.186;2023-06-14T05:04:35;10.60;;;6.80;;
809;SDS011;387;48.772;9.186;2023-06-14T05:07:07;10.00;;;7.07;;
809;SDS011;387;48.772;9.186;2023-06-14T05:09:37;13.73;;;7.97;;
809;SDS011;387;48.772;9.186;2023-06-14T05:12:03;12.00;;;7.53;;
809;SDS011;387;48.772;9.186;2023-06-14T05:14:29;10.20;;;7.70;;
809;SDS011;387;48.772;9.186;2023-06-14T05:16:54;13.03;;;7.40;;
809;SDS011;387;48.772;9.186;2023-06-14T05:19:20;15.73;;;8.50;;
809;SDS011;387;48.772;9.186;2023-06-14T05:21:46;13.37;;;7.90;;
809;SDS011;387;48.772;9.186;2023-06-14T05:24:12;11.40;;;7.23;;
809;SDS011;387;48.772;9.186;2023-06-14T05:26:38;9.70;;;7.50;;
809;SDS011;387;48.772;9.186;2023-06-14T05:29:04;15.00;;;8.03;;
809;SDS011;387;48.772;9.186;2023-06-14T05:31:29;14.80;;;8.23;;
809;SDS011;387;48.772;9.186;2023-06-14T05:33:55;23.70;;;8.63;;
809;SDS011;387;48.772;9.186;2023-06-14T05:36:21;8.20;;;6.50;;
809;SDS011;387;48.772;9.186;2023-06-14T05:38:47;10.90;;;6.30;;
809;SDS011;387;48.772;9.186;2023-06-14T05:41:13;12.63;;;7.23;;
809;SDS011;387;48.772;9.186;2023-06-14T05:43:38;11.27;;;8.00;;
809;SDS011;387;48.772;9.186;2023-06-14T05:46:04;16.23;;;7.40;;
809;SDS011;387;48.772;9.186;2023-06-14T05:48:30;12.37;;;7.40;;
809;SDS011;387;48.772;9.186;2023-06-14T05:50:56;15.23;;;6.87;;
809;SDS011;387;48.772;9.186;2023-06-14T05:53:21;13.87;;;7.73;;
809;SDS011;387;48.772;9.186;2023-06-14T05:55:47;14.10;;;8.00;;
809;SDS011;387;48.772;9.186;2023-06-14T05:58:12;13.80;;;8.23;;
809;SDS011;387;48.772;9.186;2023-06-14T06:00:38;13.00;;;8.27;;
809;SDS011;387;48.772;9.186;2023-06-14T06:03:04;12.57;;;8.10;;
809;SDS011;387;48.772;9.186;2023-06-14T06:05:33;10.90;;;7.00;;
809;SDS011;387;48.772;9.186;2023-06-14T06:07:58;14.90;;;7.53;;
809;SDS011;387;48.772;9.186;2023-06-14T06:10:25;8.87;;;7.13;;
809;SDS011;387;48.772;9.186;2023-06-14T06:12:51;13.00;;;7.17;;
809;SDS011;387;48.772;9.186;2023-06-14T06:15:17;11.40;;;7.60;;
809;SDS011;387;48.772;9.186;2023-06-14T06:17:43;11.17;;;7.23;;
809;SDS011;387;48.772;9.186;2023-06-14T06:20:09;11.57;;;6.83;;
809;SDS011;387;48.772;9.186;2023-06-14T06:22:36;11.97;;;7.97;;
809;SDS011;387;48.772;9.186;2023-06-14T06:25:02;18.50;;;8.30;;
809;SDS011;387;48.772;9.186;2023-06-14T06:27:28;10.30;;;7.20;;
809;SDS011;387;48.772;9.186;2023-06-14T06:29:53;13.77;;;7.33;;
809;SDS011;387;48.772;9.186;2023-06-14T06:32:19;15.00;;;8.40;;
809;SDS011;387;48.772;9.186;2023-06-14T06:34:45;10.70;;;7.37;;
809;SDS011;387;48.772;9.186;2023-06-14T06:37:10;15.13;;;8.30;;
809;SDS011;387;48.772;9.186;2023-06-14T06:39:36;15.13;;;7.77;;
809;SDS011;387;48.772;9.186;2023-06-14T06:42:01;13.30;;;8.03;;
809;SDS011;387;48.772;9.186;2023-06-14T06:44:27;11.67;;;8.03;;
809;SDS011;387;48.772;9.186;2023-06-14T06:46:53;11.17;;;7.43;;
809;SDS011;387;48.772;9.186;2023-06-14T06:49:18;9.50;;;7.67;;
809;SDS011;387;48.772;9.186;2023-06-14T06:51:53;16.17;;;8.20;;
809;SDS011;387;48.772;9.186;2023-06-14T06:54:28;14.53;;;7.77;;
809;SDS011;387;48.772;9.186;2023-06-14T06:56:54;13.97;;;7.30;;
809;SDS011;387;48.772;9.186;2023-06-14T06:59:20;13.70;;;7.30;;
809;SDS011;387;48.772;9.186;2023-06-14T07:01:46;9.93;;;6.70;;
809;SDS011;387;48.772;9.186;2023-06-14T07:04:12;10.60;;;6.23;;
809;SDS011;387;48.772;9.186;2023-06-14T07:06:38;13.90;;;6.90;;
809;SDS011;387;48.772;9.186;2023-06-14T07:09:03;9.50;;;6.70;;
809;SDS011;387;48.772;9.186;2023-06-14T07:11:32;10.40;;;6.50;;
809;SDS011;387;48.772;9.186;2023-06-14T07:13:58;16.00;;;8.30;;
809;SDS011;387;48.772;9.186;2023-06-14T07:16:24;11.17;;;7.23;;
809;SDS011;387;48.772;9.186;2023-06-14T07:18:50;13.83;;;7.97;;
809;SDS011;387;48.772;9.186;2023-06-14T07:21:17;16.70;;;7.73;;
809;SDS011;387;48.772;9.186;2023-06-14T07:23:42;11.60;;;7.10;;
809;SDS011;387;48.772;9.186;2023-06-14T07:26:08;8.50;;;6.87;;
809;SDS011;387;48.772;9.186;2023-06-14T07:28:34;11.30;;;7.37;;
809;SDS011;387;48.772;9.186;2023-06-14T07:30:59;10.33;;;6.80;;
809;SDS011;387;48.772;9.186;2023-06-14T07:33:25;11.43;;;7.83;;
809;SDS011;387;48.772;9.186;2023-06-14T07:35:50;8.63;;;6.07;;
809;SDS011;387;48.772;9.186;2023-06-14T07:38:17;12.13;;;7.40;;
809;SDS011;387;48.772;9.186;2023-06-14T07:40:43;8.40;;;7.00;;
809;SDS011;387;48.772;9.186;2023-06-14T07:43:08;11.20;;;7.33;;
809;SDS011;387;48.772;9.186;2023-06-14T07:45:34;10.17;;;6.97;;
809;SDS011;387;48.772;9.186;2023-06-14T07:48:00;13.20;;;7.10;;
809;SDS011;387;48.772;9.186;2023-06-14T07:50:25;10.97;;;6.07;;
809;SDS011;387;48.772;9.186;2023-06-14T07:52:51;9.63;;;6.50;;
809;SDS011;387;48.772;9.186;2023-06-14T07:55:16;10.67;;;7.30;;
809;SDS011;387;48.772;9.186;2023-06-14T07:57:42;15.40;;;7.53;;
809;SDS011;387;48.772;9.186;2023-06-14T08:00:10;14.73;;;7.37;;
809;SDS011;387;48.772;9.186;2023-06-14T08:02:40;12.37;;;7.40;;
809;SDS011;387;48.772;9.186;2023-06-14T08:05:12;14.50;;;8.10;;
809;SDS011;387;48.772;9.186;2023-06-14T08:07:38;12.00;;;7.97;;
809;SDS011;387;48.772;9.186;2023-06-14T08:10:05;10.53;;;6.90;;
809;SDS011;387;48.772;9.186;2023-06-14T08:12:31;12.10;;;7.60;;
809;SDS011;387;48.772;9.186;2023-06-14T08:14:57;15.27;;;7.67;;
809;SDS011;387;48.772;9.186;2023-06-14T08:17:23;12.37;;;7.30;;
809;SDS011;387;48.772;9.186;2023-06-14T08:19:48;11.97;;;8.30;;
809;SDS011;387;48.772;9.186;2023-06-14T08:22:14;13.27;;;8.00;;
809;SDS011;387;48.772;9.186;2023-06-14T08:24:40;12.67;;;8.23;;
809;SDS011;387;48.772;9.186;2023-06-14T08:27:06;11.70;;;7.47;;
809;SDS011;387;48.772;9.186;2023-06-14T08:29:31;11.43;;;7.80;;
809;SDS011;387;48.772;9.186;2023-06-14T08:31:57;10.63;;;6.80;;
809;SDS011;387;48.772;9.186;2023-06-14T08:34:23;9.03;;;7.10;;
809;SDS011;387;48.772;9.186;2023-06-14T08:36:51;15.13;;;7.13;;
809;SDS011;387;48.772;9.186;2023-06-14T08:39:17;10.47;;;7.67;;
809;SDS011;387;48.772;9.186;2023-06-14T08:41:46;11.97;;;7.90;;
809;SDS011;387;48.772;9.186;2023-06-14T08:44:17;16.17;;;7.23;;
809;SDS011;387;48.772;9.186;2023-06-14T08:46:43;10.80;;;7.03;;
809;SDS011;387;48.772;9.186;2023-06-14T08:49:12;13.20;;;8.00;;
809;SDS011;387;48.772;9.186;2023-06-14T08:51:39;12.20;;;7.77;;
809;SDS011;387;48.772;9.186;2023-06-14T08:54:05;12.93;;;8.80;;
809;SDS011;387;48.772;9.186;2023-06-14T08:56:32;12.37;;;7.30;;
809;SDS011;387;48.772;9.186;2023-06-14T08:58:59;10.50;;;7.60;;
809;SDS011;387;48.772;9.186;2023-06-14T09:01:34;10.10;;;7.03;;
809;SDS011;387;48.772;9.186;2023-06-14T09:04:01;11.73;;;7.40;;
809;SDS011;387;48.772;9.186;2023-06-14T09:06:27;17.43;;;8.27;;
809;SDS011;387;48.772;9.186;2023-06-14T09:08:54;11.03;;;8.07;;
809;SDS011;387;48.772;9.186;2023-06-14T09:11:23;12.40;;;7.33;;
809;SDS011;387;48.772;9.186;2023-06-14T09:13:50;8.93;;;6.80;;
809;SDS011;387;48.772;9.186;2023-06-14T09:16:16;11.47;;;7.40;;
809;SDS011;387;48.772;9.186;2023-06-14T09:18:42;9.93;;;7.60;;
809;SDS011;387;48.772;9.186;2023-06-14T09:21:10;10.40;;;7.30;;
809;SDS011;387;48.772;9.186;2023-06-14T09:23:37;17.47;;;7.20;;
809;SDS011;387;48.772;9.186;2023-06-14T09:26:11;8.40;;;7.27;;
809;SDS011;387;48.772;9.186;2023-06-14T09:28:41;13.33;;;6.67;;
809;SDS011;387;48.772;9.186;2023-06-14T09:31:18;11.90;;;6.93;;
809;SDS011;387;48.772;9.186;2023-06-14T09:33:45;9.33;;;7.00;;
809;SDS011;387;48.772;9.186;2023-06-14T09:36:17;10.63;;;6.90;;
809;SDS011;387;48.772;9.186;2023-06-14T09:38:51;11.63;;;7.47;;
809;SDS011;387;48.772;9.186;2023-06-14T09:41:30;11.73;;;6.67;;
809;SDS011;387;48.772;9.186;2023-06-14T09:43:58;10.93;;;7.47;;
809;SDS011;387;48.772;9.186;2023-06-14T09:46:26;10.33;;;7.43;;
809;SDS011;387;48.772;9.186;2023-06-14T09:48:52;14.07;;;8.00;;
809;SDS011;387;48.772;9.186;2023-06-14T09:51:18;11.13;;;7.57;;
809;SDS011;387;48.772;9.186;2023-06-14T09:53:46;11.13;;;7.80;;
809;SDS011;387;48.772;9.186;2023-06-14T09:56:13;12.20;;;7.70;;
809;SDS011;387;48.772;9.186;2023-06-14T09:58:47;10.53;;;7.67;;
809;SDS011;387;48.772;9.186;2023-06-14T10:01:18;15.30;;;6.37;;
809;SDS011;387;48.772;9.186;2023-06-14T10:03:44;17.33;;;8.00;;
809;SDS011;387;48.772;9.186;2023-06-14T10:06:11;12.47;;;7.70;;
809;SDS011;387;48.772;9.186;2023-06-14T10:08:37;13.07;;;7.10;;
809;SDS011;387;48.772;9.186;2023-06-14T10:11:04;10.13;;;6.53;;
809;SDS011;387;48.772;9.186;2023-06-14T10:13:31;7.63;;;6.20;;
809;SDS011;387;48.772;9.186;2023-06-14T10:18:45;10.93;;;6.67;;
809;SDS011;387;48.772;9.186;2023-06-14T10:23:48;10.43;;;5.93;;
809;SDS011;387;48.772;9.186;2023-06-14T10:26:22;13.53;;;6.80;;
809;SDS011;387;48.772;9.186;2023-06-14T10:29:07;10.87;;;6.70;;
809;SDS011;387;48.772;9.186;2023-06-14T10:31:40;12.97;;;6.07;;
809;SDS011;387;48.772;9.186;2023-06-14T10:34:10;10.57;;;5.33;;
809;SDS011;387;48.772;9.186;2023-06-14T10:36:37;10.93;;;7.13;;
809;SDS011;387;48.772;9.186;2023-06-14T10:39:07;13.87;;;6.93;;
809;SDS011;387;48.772;9.186;2023-06-14T10:41:41;8.07;;;6.60;;
809;SDS011;387;48.772;9.186;2023-06-14T10:46:59;12.03;;;7.20;;
809;SDS011;387;48.772;9.186;2023-06-14T10:49:36;10.70;;;7.30;;
809;SDS011;387;48.772;9.186;2023-06-14T10:52:12;9.70;;;6.83;;
809;SDS011;387;48.772;9.186;2023-06-14T10:57:31;8.00;;;6.60;;
809;SDS011;387;48.772;9.186;2023-06-14T10:59:58;7.50;;;5.83;;
809;SDS011;387;48.772;9.186;2023-06-14T11:04:59;11.50;;;7.03;;
809;SDS011;387;48.772;9.186;2023-06-14T11:13:08;7.47;;;6.10;;
809;SDS011;387;48.772;9.186;2023-06-14T11:15:35;12.80;;;6.57;;
809;SDS011;387;48.772;9.186;2023-06-14T11:18:02;9.50;;;6.70;;
809;SDS011;387;48.772;9.186;2023-06-14T11:20:30;10.33;;;6.90;;
809;SDS011;387;48.772;9.186;2023-06-14T11:22:57;12.57;;;6.10;;
809;SDS011;387;48.772;9.186;2023-06-14T11:25:23;8.07;;;5.50;;
809;SDS011;387;48.772;9.186;2023-06-14T11:27:49;8.60;;;5.57;;
809;SDS011;387;48.772;9.186;2023-06-14T11:30:16;9.30;;;6.17;;
809;SDS011;387;48.772;9.186;2023-06-14T11:32:42;9.50;;;5.70;;
809;SDS011;387;48.772;9.186;2023-06-14T11:35:10;12.80;;;7.10;;
809;SDS011;387;48.772;9.186;2023-06-14T11:37:36;9.43;;;6.17;;
809;SDS011;387;48.772;9.186;2023-06-14T11:40:03;8.40;;;5.60;;
809;SDS011;387;48.772;9.186;2023-06-14T11:42:34;9.97;;;6.73;;
809;SDS011;387;48.772;9.186;2023-06-14T11:45:00;11.07;;;6.90;;
809;SDS011;387;48.772;9.186;2023-06-14T11:47:31;8.63;;;7.13;;
809;SDS011;387;48.772;9.186;2023-06-14T11:49:58;8.13;;;6.20;;
809;SDS011;387;48.772;9.186;2023-06-14T11:52:24;7.70;;;6.00;;
809;SDS011;387;48.772;9.186;2023-06-14T11:54:49;7.10;;;4.70;;
809;SDS011;387;48.772;9.186;2023-06-14T11:57:15;11.87;;;5.67;;
809;SDS011;387;48.772;9.186;2023-06-14T11:59:43;11.30;;;6.03;;
809;SDS011;387;48.772;9.186;2023-06-14T12:02:09;7.50;;;5.57;;
809;SDS011;387;48.772;9.186;2023-06-14T12:04:40;8.80;;;6.00;;
809;SDS011;387;48.772;9.186;2023-06-14T12:07:13;11.50;;;6.30;;
809;SDS011;387;48.772;9.186;2023-06-14T12:12:22;7.27;;;5.40;;
809;SDS011;387;48.772;9.186;2023-06-14T12:14:50;11.50;;;6.37;;
809;SDS011;387;48.772;9.186;2023-06-14T12:17:16;7.83;;;5.97;;
809;SDS011;387;48.772;9.186;2023-06-14T12:19:43;9.70;;;6.77;;
809;SDS011;387;48.772;9.186;2023-06-14T12:22:10;9.20;;;6.23;;
809;SDS011;387;48.772;9.186;2023-06-14T12:24:37;10.00;;;6.50;;
809;SDS011;387;48.772;9.186;2023-06-14T12:27:03;9.33;;;5.90;;
809;SDS011;387;48.772;9.186;2023-06-14T12:29:32;12.97;;;6.83;;
809;SDS011;387;48.772;9.186;2023-06-14T12:31:58;8.37;;;5.50;;
809;SDS011;387;48.772;9.186;2023-06-14T12:34:24;9.67;;;5.83;;
809;SDS011;387;48.772;9.186;2023-06-14T12:36:50;8.13;;;5.43;;
809;SDS011;387;48.772;9.186;2023-06-14T12:39:16;6.70;;;5.50;;
809;SDS011;387;48.772;9.186;2023-06-14T12:41:42;10.73;;;6.33;;
809;SDS011;387;48.772;9.186;2023-06-14T12:44:07;14.60;;;6.00;;
809;SDS011;387;48.772;9.186;2023-06-14T12:46:33;13.23;;;7.00;;
809;SDS011;387;48.772;9.186;2023-06-14T12:49:00;10.70;;;6.00;;
809;SDS011;387;48.772;9.186;2023-06-14T12:51:26;11.37;;;7.07;;
809;SDS011;387;48.772;9.186;2023-06-14T12:53:51;7.50;;;6.43;;
809;SDS011;387;48.772;9.186;2023-06-14T12:56:17;9.50;;;6.37;;
809;SDS011;387;48.772;9.186;2023-06-14T12:58:43;11.10;;;6.20;;
809;SDS011;387;48.772;9.186;2023-06-14T13:01:08;9.10;;;5.43;;
809;SDS011;387;48.772;9.186;2023-06-14T13:03:34;9.80;;;6.47;;
809;SDS011;387;48.772;9.186;2023-06-14T13:06:00;17.87;;;6.90;;
809;SDS011;387;48.772;9.186;2023-06-14T13:08:26;7.90;;;5.73;;
809;SDS011;387;48.772;9.186;2023-06-14T13:10:52;8.50;;;6.13;;
809;SDS011;387;48.772;9.186;2023-06-14T13:13:18;8.43;;;6.47;;
809;SDS011;387;48.772;9.186;2023-06-14T13:15:44;14.50;;;5.73;;
809;SDS011;387;48.772;9.186;2023-06-14T13:18:11;8.60;;;6.00;;
809;SDS011;387;48.772;9.186;2023-06-14T13:20:38;8.77;;;6.30;;
809;SDS011;387;48.772;9.186;2023-06-14T13:23:04;8.20;;;5.97;;
809;SDS011;387;48.772;9.186;2023-06-14T13:25:32;7.17;;;5.53;;
809;SDS011;387;48.772;9.186;2023-06-14T13:28:03;11.30;;;6.33;;
809;SDS011;387;48.772;9.186;2023-06-14T13:30:29;10.50;;;6.40;;
809;SDS011;387;48.772;9.186;2023-06-14T13:32:56;7.47;;;5.50;;
809;SDS011;387;48.772;9.186;2023-06-14T13:35:23;8.17;;;5.80;;
809;SDS011;387;48.772;9.186;2023-06-14T13:37:49;10.33;;;6.60;;
809;SDS011;387;48.772;9.186;2023-06-14T13:40:15;9.57;;;6.70;;
809;SDS011;387;48.772;9.186;2023-06-14T13:42:41;9.10;;;6.30;;
809;SDS011;387;48.772;9.186;2023-06-14T13:45:07;11.60;;;6.60;;
809;SDS011;387;48.772;9.186;2023-06-14T13:47:33;7.17;;;5.70;;
809;SDS011;387;48.772;9.186;2023-06-14T13:49:59;8.27;;;5.33;;
809;SDS011;387;48.772;9.186;2023-06-14T13:52:24;8.07;;;5.93;;
809;SDS011;387;48.772;9.186;2023-06-14T13:54:50;11.00;;;6.10;;
809;SDS011;387;48.772;9.186;2023-06-14T13:57:16;11.20;;;6.93;;
809;SDS011;387;48.772;9.186;2023-06-14T13:59:43;8.80;;;6.10;;
809;SDS011;387;48.772;9.186;2023-06-14T14:02:09;7.50;;;5.93;;
809;SDS011;387;48.772;9.186;2023-06-14T14:04:36;7.20;;;5.47;;
809;SDS011;387;48.772;9.186;2023-06-14T14:07:03;8.17;;;5.60;;
809;SDS011;387;48.772;9.186;2023-06-14T14:09:30;13.57;;;7.00;;
809;SDS011;387;48.772;9.186;2023-06-14T14:11:57;10.70;;;5.90;;
809;SDS011;387;48.772;9.186;2023-06-14T14:14:23;21.03;;;6.90;;
809;SDS011;387;48.772;9.186;2023-06-14T14:16:49;11.90;;;5.93;;
809;SDS011;387;48.772;9.186;2023-06-14T14:19:20;9.23;;;6.17;;
809;SDS011;387;48.772;9.186;2023-06-14T14:21:47;12.60;;;5.97;;
809;SDS011;387;48.772;9.186;2023-06-14T14:24:13;8.10;;;6.63;;
809;SDS011;387;48.772;9.186;2023-06-14T14:26:38;7.77;;;6.23;;
809;SDS011;387;48.772;9.186;2023-06-14T14:29:05;7.90;;;6.17;;
809;SDS011;387;48.772;9.186;2023-06-14T14:31:31;10.40;;;6.80;;
809;SDS011;387;48.772;9.186;2023-06-14T14:33:57;11.03;;;6.40;;
809;SDS011;387;48.772;9.186;2023-06-14T14:36:22;9.73;;;6.40;;
809;SDS011;387;48.772;9.186;2023-06-14T14:38:48;8.33;;;5.70;;
809;SDS011;387;48.772;9.186;2023-06-14T14:41:14;8.30;;;5.73;;
809;SDS011;387;48.772;9.186;2023-06-14T14:43:39;8.87;;;5.90;;
809;SDS011;387;48.772;9.186;2023-06-14T14:46:05;10.17;;;5.90;;
809;SDS011;387;48.772;9.186;2023-06-14T14:48:30;10.10;;;6.50;;
809;SDS011;387;48.772;9.186;2023-06-14T14:50:56;8.63;;;6.43;;
809;SDS011;387;48.772;9.186;2023-06-14T14:53:22;8.70;;;5.93;;
809;SDS011;387;48.772;9.186;2023-06-14T14:55:48;9.53;;;5.83;;
809;SDS011;387;48.772;9.186;2023-06-14T14:58:14;8.63;;;6.23;;
809;SDS011;387;48.772;9.186;2023-06-14T15:00:46;7.57;;;5.87;;
809;SDS011;387;48.772;9.186;2023-06-14T15:03:12;11.67;;;6.70;;
809;SDS011;387;48.772;9.186;2023-06-14T15:05:38;12.43;;;6.13;;
809;SDS011;387;48.772;9.186;2023-06-14T15:08:04;9.03;;;6.00;;
809;SDS011;387;48.772;9.186;2023-06-14T15:10:36;12.03;;;5.83;;
809;SDS011;387;48.772;9.186;2023-06-14T15:13:02;9.50;;;6.30;;
809;SDS011;387;48.772;9.186;2023-06-14T15:15:28;12.70;;;6.77;;
809;SDS011;387;48.772;9.186;2023-06-14T15:17:54;10.50;;;5.60;;
809;SDS011;387;48.772;9.186;2023-06-14T15:20:19;8.30;;;6.03;;
809;SDS011;387;48.772;9.186;2023-06-14T15:22:45;7.43;;;6.03;;
809;SDS011;387;48.772;9.186;2023-06-14T15:25:11;8.20;;;6.03;;
809;SDS011;387;48.772;9.186;2023-06-14T15:27:36;8.13;;;6.27;;
809;SDS011;387;48.772;9.186;2023-06-14T15:30:02;9.70;;;6.50;;
809;SDS011;387;48.772;9.186;2023-06-14T15:32:28;6.73;;;5.47;;
809;SDS011;387;48.772;9.186;2023-06-14T15:34:53;12.80;;;7.07;;
809;SDS011;387;48.772;9.186;2023-06-14T15:37:19;9.43;;;6.00;;
809;SDS011;387;48.772;9.186;2023-06-14T15:39:44;8.67;;;5.87;;
809;SDS011;387;48.772;9.186;2023-06-14T15:42:10;11.03;;;6.57;;
809;SDS011;387;48.772;9.186;2023-06-14T15:44:36;7.07;;;5.40;;
809;SDS011;387;48.772;9.186;2023-06-14T15:47:02;6.97;;;5.80;;
809;SDS011;387;48.772;9.186;2023-06-14T15:49:27;7.30;;;5.93;;
809;SDS011;387;48.772;9.186;2023-06-14T15:51:54;9.60;;;6.10;;
809;SDS011;387;48.772;9.186;2023-06-14T15:54:20;8.77;;;5.97;;